createdAt,value
2023-01-07T00:00:22.000Z,11.65
2023-01-07T00:02:51.889Z,12.43
2023-01-07T00:05:18.569Z,11.68
2023-01-07T00:07:45.144Z,12.43
2023-01-07T00:10:11.893Z,12.35
2023-01-07T00:12:38.468Z,11.55
2023-01-07T00:15:05.572Z,11.52
2023-01-07T00:17:32.197Z,11.35
2023-01-07T00:19:58.791Z,11.60
2023-01-07T00:22:25.450Z,11.15
2023-01-07T00:24:52.097Z,11.30
2023-01-07T00:27:18.720Z,11.10
2023-01-07T00:29:45.324Z,11.55
2023-01-07T00:32:11.932Z,11.35
2023-01-07T00:34:39.092Z,10.52
2023-01-07T00:37:37.858Z,11.60
2023-01-07T00:40:04.982Z,11.18
2023-01-07T00:42:50.259Z,10.95
2023-01-07T00:45:17.009Z,10.68
2023-01-07T00:47:43.735Z,11.07
2023-01-07T00:50:10.403Z,12.48
2023-01-07T00:52:37.148Z,12.38
2023-01-07T00:55:04.094Z,12.18
2023-01-07T00:57:30.933Z,11.82
2023-01-07T00:59:57.904Z,12.52
2023-01-07T01:02:25.027Z,12.25
2023-01-07T01:04:52.473Z,12.27
2023-01-07T01:07:19.053Z,13.75
2023-01-07T01:09:45.752Z,12.98
2023-01-07T01:12:12.569Z,13.20
2023-01-07T01:14:39.174Z,13.20
2023-01-07T01:17:07.220Z,14.25
2023-01-07T01:19:33.917Z,14.25
2023-01-07T01:22:00.562Z,16.00
2023-01-07T01:24:27.252Z,16.17
2023-01-07T01:26:53.859Z,14.85
2023-01-07T01:29:20.564Z,15.52
2023-01-07T01:31:48.553Z,15.35
2023-01-07T01:34:15.208Z,15.75
2023-01-07T01:36:42.117Z,16.35
2023-01-07T01:39:08.906Z,15.68
2023-01-07T01:41:36.357Z,15.77
2023-01-07T01:44:28.757Z,14.57
2023-01-07T01:46:55.682Z,13.90
2023-01-07T01:49:34.696Z,14.38
2023-01-07T01:52:15.450Z,14.40
2023-01-07T01:54:45.753Z,15.07
2023-01-07T01:57:12.842Z,14.82
2023-01-07T01:59:44.153Z,15.20
2023-01-07T02:02:17.977Z,15.18
2023-01-07T02:04:44.821Z,15.93
2023-01-07T02:07:16.797Z,15.82
2023-01-07T02:09:58.580Z,16.73
2023-01-07T02:12:31.977Z,16.35
2023-01-07T02:15:10.114Z,16.02
2023-01-07T02:18:05.498Z,15.38
2023-01-07T02:20:32.381Z,15.30
2023-01-07T02:23:04.839Z,15.63
2023-01-07T02:28:45.364Z,14.60
2023-01-07T02:32:01.834Z,14.52
2023-01-07T02:35:26.059Z,14.52
2023-01-07T02:38:01.517Z,14.18
2023-01-07T02:40:55.656Z,14.98
2023-01-07T02:43:37.277Z,14.70
2023-01-07T02:46:29.763Z,14.40
2023-01-07T02:49:08.531Z,14.02
2023-01-07T02:51:37.454Z,14.57
2023-01-07T02:54:21.058Z,13.35
2023-01-07T02:56:57.696Z,13.15
2023-01-07T02:59:49.911Z,13.10
2023-01-07T03:02:44.297Z,13.02
2023-01-07T03:05:37.967Z,13.02
2023-01-07T03:08:29.650Z,12.70
2023-01-07T03:11:00.815Z,12.57
2023-01-07T03:13:48.014Z,13.10
2023-01-07T03:16:25.788Z,12.55
2023-01-07T03:19:00.844Z,13.40
2023-01-07T03:21:31.301Z,13.30
2023-01-07T03:24:00.827Z,12.82
2023-01-07T03:26:32.829Z,12.45
2023-01-07T03:29:02.928Z,13.32
2023-01-07T03:31:31.800Z,11.23
2023-01-07T03:34:15.155Z,12.32
2023-01-07T03:36:46.747Z,12.63
2023-01-07T03:39:14.919Z,13.40
2023-01-07T03:42:00.496Z,12.32
2023-01-07T03:44:27.622Z,12.02
2023-01-07T03:46:54.497Z,12.27
2023-01-07T03:49:21.227Z,12.35
2023-01-07T03:51:49.582Z,12.10
2023-01-07T03:54:16.715Z,12.07
2023-01-07T03:56:43.386Z,11.30
2023-01-07T03:59:10.040Z,12.60
2023-01-07T04:01:37.048Z,11.00
2023-01-07T04:04:04.716Z,11.73
2023-01-07T04:06:31.770Z,11.40
2023-01-07T04:08:58.559Z,11.02
2023-01-07T04:11:25.842Z,11.35
2023-01-07T04:13:53.702Z,10.57
2023-01-07T04:16:20.841Z,10.88
2023-01-07T04:18:48.036Z,11.63
2023-01-07T04:21:15.189Z,11.43
2023-01-07T04:23:41.837Z,11.02
2023-01-07T04:26:09.889Z,11.85
2023-01-07T04:28:38.031Z,10.63
2023-01-07T04:31:04.956Z,11.32
2023-01-07T04:33:34.106Z,10.15
2023-01-07T04:36:00.962Z,9.93
2023-01-07T04:38:27.775Z,10.23
2023-01-07T04:40:55.277Z,9.98
2023-01-07T04:43:22.763Z,9.30
2023-01-07T04:45:50.507Z,10.48
2023-01-07T04:48:18.020Z,10.25
2023-01-07T04:50:47.178Z,10.13
2023-01-07T04:53:15.403Z,9.48
2023-01-07T04:55:43.942Z,10.10
2023-01-07T04:58:12.814Z,9.40
2023-01-07T05:00:40.017Z,8.70
2023-01-07T05:03:07.589Z,8.73
2023-01-07T05:05:35.650Z,9.48
2023-01-07T05:08:03.780Z,9.18
2023-01-07T05:10:31.276Z,9.38
2023-01-07T05:12:58.011Z,9.30
2023-01-07T05:15:25.746Z,8.98
2023-01-07T05:17:54.077Z,8.50
2023-01-07T05:20:24.001Z,8.65
2023-01-07T05:22:50.635Z,9.32
2023-01-07T05:25:18.747Z,8.40
2023-01-07T05:27:45.477Z,8.52
2023-01-07T05:30:13.078Z,9.25
2023-01-07T05:32:39.857Z,9.43
2023-01-07T05:35:06.993Z,9.20
2023-01-07T05:37:34.171Z,10.00
2023-01-07T05:40:01.812Z,9.43
2023-01-07T05:42:29.032Z,9.15
2023-01-07T05:44:55.771Z,9.50
2023-01-07T05:47:22.560Z,9.60
2023-01-07T05:49:49.288Z,9.43
2023-01-07T05:52:15.933Z,9.27
2023-01-07T05:54:42.700Z,9.48
2023-01-07T05:57:09.527Z,10.00
2023-01-07T05:59:36.182Z,10.15
2023-01-07T06:02:03.503Z,10.48
2023-01-07T06:04:30.307Z,10.07
2023-01-07T06:06:56.913Z,10.65
2023-01-07T06:09:23.535Z,10.98
2023-01-07T06:11:50.174Z,11.05
2023-01-07T06:14:16.956Z,11.32
2023-01-07T06:16:43.546Z,11.48
2023-01-07T06:19:10.843Z,11.38
2023-01-07T06:21:37.505Z,10.35
2023-01-07T06:24:04.453Z,10.20
2023-01-07T06:26:31.077Z,11.95
2023-01-07T06:28:57.690Z,11.88
2023-01-07T06:31:24.336Z,12.88
2023-01-07T06:33:50.937Z,12.45
2023-01-07T06:36:17.540Z,13.20
2023-01-07T06:38:44.244Z,12.60
2023-01-07T06:41:10.849Z,12.68
2023-01-07T06:43:37.460Z,12.70
2023-01-07T06:46:04.346Z,12.15
2023-01-07T06:48:31.021Z,12.95
2023-01-07T06:50:57.699Z,12.48
2023-01-07T06:53:24.293Z,12.30
2023-01-07T06:55:51.952Z,12.90
2023-01-07T06:58:19.027Z,13.68
2023-01-07T07:00:45.894Z,13.25
2023-01-07T07:03:12.693Z,12.90
2023-01-07T07:05:39.600Z,14.77
2023-01-07T07:08:06.504Z,15.02
2023-01-07T07:10:33.484Z,14.18
2023-01-07T07:13:00.103Z,12.48
2023-01-07T07:15:27.057Z,12.05
2023-01-07T07:17:53.752Z,12.18
2023-01-07T07:20:20.385Z,20.95
2023-01-07T07:22:48.496Z,17.58
2023-01-07T07:25:15.682Z,16.23
2023-01-07T07:27:46.059Z,32.03
2023-01-07T07:30:15.156Z,15.38
2023-01-07T07:32:42.720Z,13.35
2023-01-07T07:35:11.051Z,14.20
2023-01-07T07:37:37.950Z,13.27
2023-01-07T07:40:05.974Z,14.57
2023-01-07T07:42:32.631Z,13.45
2023-01-07T07:45:19.924Z,14.40
2023-01-07T07:47:46.878Z,14.10
2023-01-07T07:50:13.898Z,20.10
2023-01-07T07:52:49.608Z,28.63
2023-01-07T07:55:20.258Z,35.58
2023-01-07T07:57:57.251Z,28.73
2023-01-07T08:00:24.746Z,18.20
2023-01-07T08:02:51.408Z,41.10
2023-01-07T08:05:18.272Z,27.45
2023-01-07T08:07:44.982Z,14.35
2023-01-07T08:10:11.692Z,11.82
2023-01-07T08:12:39.107Z,11.65
2023-01-07T08:15:07.205Z,11.50
2023-01-07T08:17:36.282Z,10.73
2023-01-07T08:20:04.531Z,10.43
2023-01-07T08:22:31.236Z,10.25
2023-01-07T08:24:57.838Z,9.85
2023-01-07T08:27:24.728Z,9.20
2023-01-07T08:29:51.334Z,8.90
2023-01-07T08:32:17.921Z,8.50
2023-01-07T08:34:44.600Z,8.75
2023-01-07T08:37:11.238Z,8.23
2023-01-07T08:39:38.056Z,7.70
2023-01-07T08:42:05.089Z,7.70
2023-01-07T08:44:32.522Z,6.55
2023-01-07T08:46:59.333Z,6.82
2023-01-07T08:49:25.981Z,6.55
2023-01-07T08:51:52.594Z,5.93
2023-01-07T08:54:19.371Z,6.35
2023-01-07T08:56:46.165Z,5.80
2023-01-07T08:59:12.795Z,5.38
2023-01-07T09:01:39.723Z,5.30
2023-01-07T09:04:06.368Z,4.50
2023-01-07T09:06:33.026Z,4.38
2023-01-07T09:08:59.655Z,4.80
2023-01-07T09:11:26.365Z,4.90
2023-01-07T09:13:53.438Z,4.80
2023-01-07T09:16:20.103Z,5.68
2023-01-07T09:18:46.767Z,3.33
2023-01-07T09:21:13.406Z,3.65
2023-01-07T09:23:40.467Z,3.30
2023-01-07T09:26:07.463Z,3.50
2023-01-07T09:28:34.056Z,3.80
2023-01-07T09:31:00.926Z,3.90
2023-01-07T09:33:27.639Z,4.60
2023-01-07T09:35:54.444Z,3.83
2023-01-07T09:38:21.143Z,3.90
2023-01-07T09:40:49.080Z,3.95
2023-01-07T09:44:00.388Z,3.95
2023-01-07T09:46:17.497Z,4.38
2023-01-07T09:48:54.088Z,4.05
2023-01-07T09:51:39.035Z,4.35
2023-01-07T09:54:17.062Z,4.63
2023-01-07T09:56:43.889Z,4.47
2023-01-07T09:59:10.989Z,4.03
2023-01-07T10:01:53.280Z,4.25
2023-01-07T10:04:22.731Z,4.57
2023-01-07T10:07:21.152Z,3.95
2023-01-07T10:10:17.842Z,4.90
2023-01-07T10:12:59.478Z,3.40
2023-01-07T10:15:50.358Z,3.63
2023-01-07T10:18:39.131Z,3.70
2023-01-07T10:21:18.337Z,4.22
2023-01-07T10:23:53.919Z,3.92
2023-01-07T10:26:33.487Z,3.50
2023-01-07T10:29:13.551Z,3.60
2023-01-07T10:31:40.897Z,3.78
2023-01-07T10:34:16.416Z,3.38
2023-01-07T10:37:00.249Z,3.40
2023-01-07T10:39:37.280Z,3.80
2023-01-07T10:42:10.123Z,4.13
2023-01-07T10:45:15.943Z,3.90
2023-01-07T10:48:00.404Z,4.50
2023-01-07T10:50:54.621Z,4.70
2023-01-07T10:53:43.005Z,4.95
2023-01-07T10:56:36.845Z,4.88
2023-01-07T10:59:03.990Z,4.50
2023-01-07T11:01:41.070Z,4.60
2023-01-07T11:04:14.365Z,4.20
2023-01-07T11:06:46.986Z,4.10
2023-01-07T11:09:29.700Z,4.60
2023-01-07T11:12:01.175Z,4.65
2023-01-07T11:14:32.752Z,4.00
2023-01-07T11:17:26.989Z,3.95
2023-01-07T11:19:53.657Z,4.05
2023-01-07T11:22:26.078Z,3.53
2023-01-07T11:27:29.222Z,3.67
2023-01-07T11:32:28.653Z,3.95
2023-01-07T11:35:23.288Z,3.55
2023-01-07T11:37:50.315Z,3.33
2023-01-07T11:40:24.443Z,3.63
2023-01-07T11:43:03.017Z,3.15
2023-01-07T11:46:19.706Z,3.72
2023-01-07T11:48:42.957Z,3.97
2023-01-07T11:51:11.037Z,3.33
2023-01-07T11:53:49.598Z,3.50
2023-01-07T11:56:33.681Z,3.40
2023-01-07T11:59:15.990Z,3.33
2023-01-07T12:01:44.112Z,3.90
2023-01-07T12:04:21.399Z,3.72
2023-01-07T12:06:50.968Z,4.32
2023-01-07T12:09:32.688Z,3.47
2023-01-07T12:12:31.745Z,3.40
2023-01-07T12:15:06.285Z,3.53
2023-01-07T12:17:35.207Z,3.25
2023-01-07T12:20:30.576Z,3.70
2023-01-07T12:23:05.315Z,3.55
2023-01-07T12:25:33.669Z,3.00
2023-01-07T12:28:07.126Z,2.85
2023-01-07T12:30:58.771Z,2.72
2023-01-07T12:33:45.460Z,2.70
2023-01-07T12:36:29.668Z,2.90
2023-01-07T12:39:00.977Z,3.03
2023-01-07T12:41:32.428Z,3.95
2023-01-07T12:44:04.838Z,3.40
2023-01-07T12:47:31.250Z,3.60
2023-01-07T12:49:59.037Z,3.42
2023-01-07T12:52:45.897Z,3.22
2023-01-07T12:55:22.669Z,3.20
2023-01-07T12:58:14.932Z,3.28
2023-01-07T13:00:59.734Z,2.85
2023-01-07T13:03:50.453Z,2.67
2023-01-07T13:06:34.695Z,2.70
2023-01-07T13:09:09.869Z,3.25
2023-01-07T13:12:06.426Z,2.40
2023-01-07T13:14:41.193Z,2.70
2023-01-07T13:17:29.303Z,2.80
2023-01-07T13:19:56.197Z,2.45
2023-01-07T13:22:28.588Z,2.00
2023-01-07T13:28:17.604Z,2.63
2023-01-07T13:30:56.201Z,1.70
2023-01-07T13:33:39.875Z,2.13
2023-01-07T13:36:40.409Z,2.40
2023-01-07T13:39:45.772Z,2.92
2023-01-07T13:42:30.048Z,2.90
2023-01-07T13:45:05.384Z,2.38
2023-01-07T13:47:46.898Z,2.00
2023-01-07T13:50:39.682Z,3.00
2023-01-07T13:53:28.372Z,3.22
2023-01-07T13:56:17.723Z,2.90
2023-01-07T13:58:46.067Z,3.78
2023-01-07T14:01:15.736Z,3.78
2023-01-07T14:03:46.880Z,3.97
2023-01-07T14:06:23.764Z,4.50
2023-01-07T14:08:57.955Z,4.38
2023-01-07T14:11:30.843Z,4.90
2023-01-07T14:14:24.677Z,4.22
2023-01-07T14:17:16.117Z,4.57
2023-01-07T14:20:06.034Z,4.18
2023-01-07T14:22:44.469Z,4.50
2023-01-07T14:25:42.211Z,5.40
2023-01-07T14:28:29.884Z,5.03
2023-01-07T14:30:58.252Z,6.25
2023-01-07T14:33:26.340Z,5.50
2023-01-07T14:36:06.329Z,6.38
2023-01-07T14:38:33.041Z,6.68
2023-01-07T14:41:15.880Z,5.80
2023-01-07T14:43:48.546Z,7.32
2023-01-07T14:46:24.324Z,6.88
2023-01-07T14:49:03.576Z,7.68
2023-01-07T14:51:56.286Z,7.57
2023-01-07T14:57:29.390Z,8.20
2023-01-07T15:00:01.703Z,7.85
2023-01-07T15:03:09.678Z,8.52
2023-01-07T15:06:08.637Z,9.05
2023-01-07T15:09:47.830Z,10.13
2023-01-07T15:12:41.648Z,11.02
2023-01-07T15:15:39.411Z,11.35
2023-01-07T15:18:08.053Z,12.13
2023-01-07T15:21:15.817Z,13.07
2023-01-07T15:24:10.331Z,12.25
2023-01-07T15:26:50.046Z,13.18
2023-01-07T15:29:50.369Z,14.55
2023-01-07T15:32:32.367Z,13.63
2023-01-07T15:34:59.194Z,15.13
2023-01-07T15:37:25.893Z,15.00
2023-01-07T15:39:57.713Z,15.77
2023-01-07T15:42:27.266Z,14.85
2023-01-07T15:44:59.144Z,14.57
2023-01-07T15:47:43.521Z,14.63
2023-01-07T15:50:33.755Z,14.43
2023-01-07T15:53:22.462Z,14.65
2023-01-07T15:55:49.028Z,14.48
2023-01-07T15:58:20.401Z,14.90
2023-01-07T16:00:57.744Z,14.90
2023-01-07T16:03:25.208Z,14.43
2023-01-07T16:05:53.185Z,15.35
2023-01-07T16:08:28.412Z,14.63
2023-01-07T16:11:03.866Z,13.65
2023-01-07T16:13:32.078Z,15.38
2023-01-07T16:16:05.615Z,16.02
2023-01-07T16:18:33.146Z,15.73
2023-01-07T16:21:04.721Z,15.55
2023-01-07T16:23:36.699Z,15.73
2023-01-07T16:26:27.420Z,16.42
2023-01-07T16:29:02.115Z,16.70
2023-01-07T16:31:30.658Z,16.45
2023-01-07T16:33:59.735Z,16.35
2023-01-07T16:36:31.517Z,17.15
2023-01-07T16:39:04.067Z,18.75
2023-01-07T16:43:59.180Z,18.55
2023-01-07T16:46:38.854Z,19.90
2023-01-07T16:49:11.555Z,20.42
2023-01-07T16:51:50.323Z,20.92
2023-01-07T16:54:30.827Z,20.95
2023-01-07T16:56:59.070Z,21.60
2023-01-07T16:59:31.693Z,21.00
2023-01-07T17:02:02.230Z,21.25
2023-01-07T17:04:30.410Z,22.27
2023-01-07T17:07:00.427Z,23.77
2023-01-07T17:09:38.313Z,23.60
2023-01-07T17:12:05.674Z,24.75
2023-01-07T17:14:35.744Z,29.33
2023-01-07T17:17:19.612Z,27.40
2023-01-07T17:19:47.776Z,26.83
2023-01-07T17:22:30.756Z,26.73
2023-01-07T17:25:08.658Z,26.33
2023-01-07T17:27:40.967Z,25.35
2023-01-07T17:30:16.236Z,28.27
2023-01-07T17:32:43.816Z,26.88
2023-01-07T17:35:19.783Z,24.05
2023-01-07T17:37:47.132Z,26.23
2023-01-07T17:40:14.374Z,26.42
2023-01-07T17:43:01.033Z,26.98
2023-01-07T17:45:28.796Z,26.50
2023-01-07T17:47:56.893Z,26.27
2023-01-07T17:50:23.607Z,25.85
2023-01-07T17:52:53.114Z,26.52
2023-01-07T17:55:30.998Z,24.02
2023-01-07T17:57:58.356Z,24.48
2023-01-07T18:00:28.097Z,25.60
2023-01-07T18:02:54.815Z,23.08
2023-01-07T18:05:23.819Z,25.50
2023-01-07T18:07:51.853Z,25.27
2023-01-07T18:10:21.942Z,24.88
2023-01-07T18:12:48.523Z,25.70
2023-01-07T18:15:21.776Z,25.25
2023-01-07T18:17:48.726Z,23.88
2023-01-07T18:20:16.151Z,24.73
2023-01-07T18:22:43.565Z,24.45
2023-01-07T18:25:22.146Z,23.13
2023-01-07T18:27:52.630Z,23.58
2023-01-07T18:30:21.533Z,24.10
2023-01-07T18:32:49.549Z,24.40
2023-01-07T18:35:19.035Z,24.83
2023-01-07T18:37:50.446Z,24.08
2023-01-07T18:40:17.829Z,25.02
2023-01-07T18:42:44.795Z,24.05
2023-01-07T18:45:12.712Z,24.77
2023-01-07T18:47:39.381Z,24.58
2023-01-07T18:50:06.752Z,26.00
2023-01-07T18:52:33.903Z,24.77
2023-01-07T18:55:00.647Z,24.50
2023-01-07T18:57:27.310Z,25.40
2023-01-07T18:59:54.036Z,25.42
2023-01-07T19:02:21.661Z,26.98
2023-01-07T19:04:49.182Z,25.45
2023-01-07T19:07:17.698Z,25.13
2023-01-07T19:09:45.411Z,24.70
2023-01-07T19:12:12.246Z,26.17
2023-01-07T19:14:39.987Z,25.02
2023-01-07T19:17:07.762Z,25.02
2023-01-07T19:19:47.304Z,25.33
2023-01-07T19:22:16.014Z,26.38
2023-01-07T19:24:43.377Z,24.70
2023-01-07T19:27:10.474Z,27.48
2023-01-07T19:29:37.191Z,25.88
2023-01-07T19:32:04.468Z,38.78
2023-01-07T19:34:31.236Z,47.83
2023-01-07T19:36:57.922Z,27.42
2023-01-07T19:39:24.621Z,78.90
2023-01-07T19:41:51.307Z,34.03
2023-01-07T19:44:18.295Z,25.88
2023-01-07T19:46:45.126Z,26.40
2023-01-07T19:49:12.258Z,27.10
2023-01-07T19:51:40.619Z,27.40
2023-01-07T19:54:09.603Z,27.75
2023-01-07T19:56:36.806Z,27.08
2023-01-07T19:59:03.600Z,27.73
2023-01-07T20:01:30.441Z,27.55
2023-01-07T20:03:58.931Z,27.30
2023-01-07T20:06:28.334Z,30.55
2023-01-07T20:08:57.126Z,30.83
2023-01-07T20:11:24.862Z,30.35
2023-01-07T20:13:51.507Z,33.15
2023-01-07T20:16:21.958Z,34.33
2023-01-07T20:18:50.977Z,39.20
2023-01-07T20:21:20.022Z,35.90
2023-01-07T20:23:47.312Z,37.00
2023-01-07T20:26:25.373Z,35.20
2023-01-07T20:28:52.155Z,37.22
2023-01-07T20:31:21.069Z,36.25
2023-01-07T20:33:49.285Z,37.35
2023-01-07T20:36:18.861Z,36.88
2023-01-07T20:38:46.824Z,38.28
2023-01-07T20:41:19.382Z,36.70
2023-01-07T20:43:53.900Z,37.28
2023-01-07T20:46:21.197Z,37.55
2023-01-07T20:48:48.563Z,36.47
2023-01-07T20:51:15.728Z,36.70
2023-01-07T20:53:43.135Z,35.55
2023-01-07T20:56:10.442Z,33.90
2023-01-07T20:58:38.327Z,33.17
2023-01-07T21:01:07.645Z,32.88
2023-01-07T21:03:35.636Z,31.05
2023-01-07T21:06:02.483Z,32.83
2023-01-07T21:08:29.215Z,30.98
2023-01-07T21:10:55.886Z,31.25
2023-01-07T21:13:23.303Z,34.05
2023-01-07T21:15:50.678Z,31.77
2023-01-07T21:18:17.875Z,32.83
2023-01-07T21:20:44.959Z,48.88
2023-01-07T21:23:11.965Z,32.90
2023-01-07T21:25:38.661Z,35.13
2023-01-07T21:28:06.861Z,36.75
2023-01-07T21:30:34.380Z,38.67
2023-01-07T21:33:01.183Z,38.55
2023-01-07T21:35:27.914Z,39.20
2023-01-07T21:37:55.551Z,39.88
2023-01-07T21:40:22.806Z,40.65
2023-01-07T21:42:49.711Z,41.00
2023-01-07T21:45:17.361Z,42.45
2023-01-07T21:47:44.146Z,41.67
2023-01-07T21:50:11.119Z,41.47
2023-01-07T21:52:37.746Z,41.95
2023-01-07T21:55:04.827Z,40.78
2023-01-07T21:57:31.520Z,42.50
2023-01-07T21:59:58.200Z,40.63
2023-01-07T22:02:24.899Z,39.60
2023-01-07T22:04:51.560Z,39.53
2023-01-07T22:07:19.305Z,40.10
2023-01-07T22:09:46.219Z,41.28
2023-01-07T22:12:13.941Z,41.05
2023-01-07T22:14:40.819Z,41.80
2023-01-07T22:17:09.566Z,42.08
2023-01-07T22:19:36.305Z,40.72
2023-01-07T22:22:02.912Z,40.58
2023-01-07T22:24:29.813Z,41.80
2023-01-07T22:26:59.668Z,42.53
2023-01-07T22:29:27.589Z,43.25
2023-01-07T22:31:54.301Z,41.83
2023-01-07T22:34:21.019Z,43.17
2023-01-07T22:36:50.695Z,43.22
2023-01-07T22:39:22.690Z,43.83
2023-01-07T22:41:54.148Z,42.65
2023-01-07T22:44:29.199Z,42.72
2023-01-07T22:46:56.623Z,43.00
2023-01-07T22:49:26.925Z,43.08
2023-01-07T22:51:53.989Z,43.35
2023-01-07T22:54:20.894Z,44.38
2023-01-07T22:56:47.968Z,44.63
2023-01-07T22:59:14.563Z,44.50
2023-01-07T23:01:41.234Z,44.85
2023-01-07T23:04:08.095Z,46.75
2023-01-07T23:06:34.728Z,43.50
2023-01-07T23:09:01.395Z,45.35
2023-01-07T23:11:46.702Z,43.97
2023-01-07T23:14:14.053Z,43.42
2023-01-07T23:16:40.779Z,42.70
2023-01-07T23:19:07.539Z,42.83
2023-01-07T23:21:34.409Z,41.42
2023-01-07T23:24:01.043Z,42.25
2023-01-07T23:26:27.917Z,41.95
2023-01-07T23:28:54.885Z,41.53
2023-01-07T23:31:21.579Z,45.05
2023-01-07T23:33:48.501Z,43.30
2023-01-07T23:36:15.136Z,41.95
2023-01-07T23:38:42.312Z,41.78
2023-01-07T23:41:10.988Z,43.40
2023-01-07T23:43:37.926Z,44.35
2023-01-07T23:46:06.492Z,47.63
2023-01-07T23:48:35.760Z,49.45
2023-01-07T23:51:09.866Z,50.05
2023-01-07T23:53:37.289Z,49.85
2023-01-07T23:56:05.179Z,51.15
2023-01-07T23:58:32.937Z,52.53
